Time,TemperatureF,DewpointF,PressureIn,WindDirection,WindDirectionDegrees,WindSpeedMPH,WindSpeedGustMPH,Humidity,HourlyPrecipIn,Conditions,Clouds,dailyrainin,SoftwareType,DateUTC
2013-03-04 09:01:00,26.0,13.0,29.68,WNW,292,4.0,12.0,58,0.00,,,0.39,,2013-03-04 14:01:00,
2013-03-04 09:11:00,26.0,13.0,29.68,WNW,292,4.0,12.0,58,0.00,,,0.39,,2013-03-04 14:11:00,
2013-03-04 09:22:00,26.0,12.0,29.70,West,274,7.0,13.0,55,0.00,,,0.39,,2013-03-04 14:22:00,
2013-03-04 09:32:00,25.0,10.0,29.72,West,268,3.0,12.0,53,0.00,,,0.39,,2013-03-04 14:32:00,
2013-03-04 09:41:00,25.0,10.0,29.72,West,268,3.0,12.0,53,0.00,,,0.39,,2013-03-04 14:41:00,
2013-03-04 09:52:00,25.0,10.0,29.72,WNW,289,3.0,10.0,53,0.00,,,0.39,,2013-03-04 14:52:00,
2013-03-04 10:01:00,25.0,11.0,29.73,WNW,287,4.0,10.0,54,0.00,,,0.39,,2013-03-04 15:01:00,
2013-03-04 10:11:00,25.0,11.0,29.73,WNW,287,4.0,10.0,54,0.00,,,0.39,,2013-03-04 15:11:00,
2013-03-04 10:21:00,25.0,9.0,29.74,NW,304,6.0,12.0,49,0.00,,,0.39,,2013-03-04 15:21:00,
2013-03-04 10:31:00,25.0,8.0,29.74,West,272,6.0,12.0,47,0.00,,,0.39,,2013-03-04 15:31:00,
2013-03-04 10:41:00,25.0,8.0,29.74,West,272,6.0,12.0,47,0.00,,,0.39,,2013-03-04 15:41:00,
2013-03-04 10:52:00,25.0,7.0,29.75,WNW,292,7.0,12.0,46,0.00,,,0.39,,2013-03-04 15:52:00,
2013-03-04 11:02:00,25.0,8.0,29.77,WSW,250,5.0,14.0,47,0.00,,,0.39,,2013-03-04 16:02:00,
2013-03-04 11:11:00,25.0,8.0,29.77,WSW,250,5.0,14.0,47,0.00,,,0.39,,2013-03-04 16:11:00,
2013-03-04 11:21:00,25.0,7.0,29.78,WSW,258,3.0,14.0,46,0.00,,,0.39,,2013-03-04 16:21:00,
2013-03-04 11:31:00,26.0,6.0,29.77,WSW,247,8.0,13.0,41,0.00,,,0.39,,2013-03-04 16:31:00,
2013-03-04 11:41:00,26.0,6.0,29.77,WSW,247,8.0,13.0,41,0.00,,,0.39,,2013-03-04 16:41:00,
2013-03-04 11:52:00,26.0,5.0,29.78,WSW,243,6.0,17.0,40,0.00,,,0.39,,2013-03-04 16:52:00,
2013-03-04 12:01:00,26.0,4.0,29.78,SW,232,6.0,13.0,38,0.00,,,0.39,,2013-03-04 17:01:00,
2013-03-04 12:11:00,26.0,4.0,29.78,SW,232,6.0,13.0,38,0.00,,,0.39,,2013-03-04 17:11:00,
2013-03-04 12:21:00,26.0,4.0,29.78,WSW,244,5.0,6.0,39,0.00,,,0.39,,2013-03-04 17:21:00,
2013-03-04 12:31:00,27.0,4.0,29.79,WSW,258,4.0,12.0,36,0.00,,,0.39,,2013-03-04 17:31:00,
2013-03-04 12:42:00,27.0,4.0,29.79,WSW,258,4.0,12.0,36,0.00,,,0.39,,2013-03-04 17:42:00,
2013-03-04 12:52:00,26.0,4.0,29.80,WNW,297,4.0,7.0,39,0.00,,,0.39,,2013-03-04 17:52:00,
2013-03-04 13:01:00,28.0,5.0,29.79,NW,305,4.0,10.0,37,0.00,,,0.39,,2013-03-04 18:01:00,
2013-03-04 13:11:00,28.0,5.0,29.79,NW,305,4.0,10.0,37,0.00,,,0.39,,2013-03-04 18:11:00,
2013-03-04 13:21:00,28.0,4.0,29.80,NW,306,3.0,7.0,35,0.00,,,0.39,,2013-03-04 18:21:00,
2013-03-04 13:31:00,28.0,2.0,29.81,NNW,329,3.0,8.0,32,0.00,,,0.39,,2013-03-04 18:31:00,
2013-03-04 13:41:00,28.0,2.0,29.81,NNW,329,3.0,8.0,32,0.00,,,0.39,,2013-03-04 18:41:00,
2013-03-04 13:52:00,29.0,2.0,29.80,North,353,4.0,7.0,31,0.00,,,0.39,,2013-03-04 18:52:00,
2013-03-04 14:01:00,28.0,-1.0,29.82,SW,235,7.0,12.0,28,0.00,,,0.39,,2013-03-04 19:01:00,
2013-03-04 14:11:00,28.0,-1.0,29.82,SW,235,7.0,12.0,28,0.00,,,0.39,,2013-03-04 19:11:00,
2013-03-04 14:21:00,28.0,-1.0,29.82,WSW,247,4.0,12.0,28,0.00,,,0.39,,2013-03-04 19:21:00,
2013-03-04 14:31:00,29.0,0.0,29.83,WNW,299,3.0,7.0,28,0.00,,,0.39,,2013-03-04 19:31:00,
2013-03-04 14:41:00,29.0,0.0,29.83,WNW,299,3.0,7.0,28,0.00,,,0.39,,2013-03-04 19:41:00,
2013-03-04 14:52:00,28.0,1.0,29.83,SW,236,3.0,12.0,31,0.00,,,0.39,,2013-03-04 19:52:00,
2013-03-04 15:01:00,29.0,0.0,29.83,SW,224,6.0,12.0,28,0.00,,,0.39,,2013-03-04 20:01:00,
2013-03-04 15:11:00,29.0,1.0,29.82,WNW,296,4.0,13.0,30,0.00,,,0.39,,2013-03-04 20:11:00,
2013-03-04 15:21:00,29.0,1.0,29.82,WNW,296,4.0,13.0,30,0.00,,,0.39,,2013-03-04 20:21:00,
2013-03-04 15:31:00,28.0,0.0,29.84,WSW,243,9.0,14.0,29,0.00,,,0.39,,2013-03-04 20:31:00,
2013-03-04 15:41:00,28.0,0.0,29.84,WSW,243,9.0,14.0,29,0.00,,,0.39,,2013-03-04 20:41:00,
2013-03-04 15:52:00,29.0,1.0,29.83,West,274,6.0,12.0,29,0.00,,,0.39,,2013-03-04 20:52:00,
2013-03-04 16:01:00,30.0,2.0,29.83,WSW,256,6.0,12.0,29,0.00,,,0.39,,2013-03-04 21:01:00,
2013-03-04 16:11:00,30.0,2.0,29.83,WSW,256,6.0,12.0,29,0.00,,,0.39,,2013-03-04 21:11:00,
2013-03-04 16:21:00,30.0,1.0,29.83,South,185,4.0,7.0,28,0.00,,,0.39,,2013-03-04 21:21:00,
2013-03-04 16:31:00,30.0,2.0,29.84,WSW,258,6.0,12.0,30,0.00,,,0.39,,2013-03-04 21:31:00,
2013-03-04 16:41:00,30.0,2.0,29.84,WSW,258,6.0,12.0,30,0.00,,,0.39,,2013-03-04 21:41:00,
2013-03-04 16:52:00,30.0,3.0,29.84,West,275,2.0,8.0,31,0.00,,,0.39,,2013-03-04 21:52:00,
2013-03-04 17:01:00,30.0,2.0,29.84,WSW,239,6.0,10.0,30,0.00,,,0.39,,2013-03-04 22:01:00,
2013-03-04 17:11:00,30.0,2.0,29.84,WSW,239,6.0,10.0,30,0.00,,,0.39,,2013-03-04 22:11:00,
2013-03-04 17:21:00,30.0,3.0,29.85,WSW,237,5.0,7.0,31,0.00,,,0.39,,2013-03-04 22:21:00,
2013-03-04 17:31:00,31.0,5.0,29.86,WSW,258,5.0,12.0,32,0.00,,,0.39,,2013-03-04 22:31:00,
2013-03-04 17:42:00,31.0,5.0,29.86,WSW,258,5.0,12.0,32,0.00,,,0.39,,2013-03-04 22:42:00,
2013-03-04 17:52:00,31.0,5.0,29.86,NW,306,4.0,10.0,32,0.00,,,0.39,,2013-03-04 22:52:00,
2013-03-04 18:01:00,30.0,4.0,29.87,WSW,253,4.0,10.0,33,0.00,,,0.39,,2013-03-04 23:01:00,
2013-03-04 18:11:00,30.0,4.0,29.87,WSW,253,4.0,10.0,33,0.00,,,0.39,,2013-03-04 23:11:00,
2013-03-04 18:21:00,30.0,6.0,29.87,West,273,3.0,12.0,35,0.00,,,0.39,,2013-03-04 23:21:00,
2013-03-04 18:31:00,29.0,7.0,29.89,WSW,246,4.0,12.0,39,0.00,,,0.39,,2013-03-04 23:31:00,
2013-03-04 18:41:00,29.0,7.0,29.89,WSW,246,4.0,12.0,39,0.00,,,0.39,,2013-03-04 23:41:00,
2013-03-04 18:52:00,29.0,7.0,29.87,West,263,6.0,10.0,39,0.00,,,0.39,,2013-03-04 23:52:00,
2013-03-04 19:01:00,29.0,9.0,29.89,WSW,241,6.0,12.0,42,0.00,,,0.37,,2013-03-05 00:01:00,
2013-03-04 19:11:00,29.0,9.0,29.89,WSW,241,6.0,12.0,42,0.00,,,0.37,,2013-03-05 00:11:00,
2013-03-04 19:21:00,28.0,9.0,29.89,WSW,249,5.0,10.0,44,0.00,,,0.36,,2013-03-05 00:21:00,
2013-03-04 19:32:00,28.0,9.0,29.91,WSW,243,6.0,12.0,45,0.00,,,0.34,,2013-03-05 00:32:00,
2013-03-04 19:41:00,28.0,9.0,29.91,WSW,243,6.0,12.0,45,0.00,,,0.34,,2013-03-05 00:41:00,
2013-03-04 19:52:00,28.0,10.0,29.92,WSW,253,6.0,12.0,46,0.00,,,0.34,,2013-03-05 00:52:00,
2013-03-04 20:01:00,27.0,10.0,29.93,WSW,247,3.0,8.0,48,0.00,,,0.34,,2013-03-05 01:01:00,
2013-03-04 20:11:00,27.0,10.0,29.93,WSW,247,3.0,8.0,48,0.00,,,0.34,,2013-03-05 01:11:00,
2013-03-04 20:21:00,26.0,10.0,29.94,WSW,253,1.0,7.0,50,0.00,,,0.32,,2013-03-05 01:21:00,
2013-03-04 20:32:00,26.0,11.0,29.96,West,264,1.0,2.0,52,0.00,,,0.32,,2013-03-05 01:32:00,
2013-03-04 20:41:00,26.0,11.0,29.96,West,264,1.0,2.0,52,0.00,,,0.32,,2013-03-05 01:41:00,
2013-03-04 20:52:00,25.0,10.0,29.98,West,264,1.0,3.0,52,0.00,,,0.30,,2013-03-05 01:52:00,
2013-03-04 21:01:00,25.0,11.0,29.98,West,264,1.0,3.0,54,0.00,,,0.30,,2013-03-05 02:01:00,
2013-03-04 21:11:00,25.0,11.0,29.98,West,264,1.0,3.0,54,0.00,,,0.30,,2013-03-05 02:11:00,
2013-03-04 21:21:00,24.0,11.0,29.99,West,264,0.0,3.0,56,0.00,,,0.28,,2013-03-05 02:21:00,
2013-03-04 21:31:00,23.0,10.0,30.01,West,264,0.0,0.0,57,0.00,,,0.28,,2013-03-05 02:31:00,
2013-03-04 21:41:00,23.0,10.0,30.01,West,264,0.0,0.0,57,0.00,,,0.28,,2013-03-05 02:41:00,
2013-03-04 21:52:00,22.0,10.0,30.03,West,264,0.0,2.0,58,0.00,,,0.26,,2013-03-05 02:52:00,
2013-03-04 22:01:00,22.0,10.0,30.02,West,264,0.0,2.0,59,0.00,,,0.24,,2013-03-05 03:01:00,
2013-03-04 22:11:00,21.0,9.0,30.03,West,264,0.0,0.0,60,0.00,,,0.22,,2013-03-05 03:11:00,
2013-03-04 22:21:00,21.0,9.0,30.03,West,264,0.0,0.0,60,0.00,,,0.22,,2013-03-05 03:21:00,
2013-03-04 22:31:00,20.0,9.0,30.04,West,264,0.0,0.0,61,0.00,,,0.20,,2013-03-05 03:31:00,
2013-03-04 22:41:00,20.0,9.0,30.04,West,264,0.0,0.0,61,0.00,,,0.20,,2013-03-05 03:41:00,
2013-03-04 22:52:00,19.0,8.0,30.05,West,264,0.0,0.0,62,0.00,,,0.18,,2013-03-05 03:52:00,
2013-03-04 23:01:00,19.0,9.0,30.05,West,264,0.0,0.0,63,0.00,,,0.17,,2013-03-05 04:01:00,
2013-03-04 23:11:00,19.0,9.0,30.05,West,264,0.0,0.0,63,0.00,,,0.17,,2013-03-05 04:11:00,
2013-03-04 23:21:00,18.0,8.0,30.07,West,264,0.0,0.0,64,0.00,,,0.16,,2013-03-05 04:21:00,
2013-03-04 23:31:00,18.0,8.0,30.06,West,264,0.0,0.0,64,0.00,,,0.14,,2013-03-05 04:31:00,
2013-03-04 23:41:00,18.0,8.0,30.06,West,264,0.0,0.0,64,0.00,,,0.14,,2013-03-05 04:41:00,
2013-03-04 23:52:00,17.0,7.0,30.07,West,264,0.0,0.0,65,0.00,,,0.12,,2013-03-05 04:52:00,